Aviation Digital Data Service (ADDS)

Output produced by METARs form (1107 UTC 30 July 2014)
found at http://aviationweather.gov/adds/metars/
 
KBAF 300540Z 3006/3106 00000KT P6SM BKN070 
     FM300700 00000KT P6SM SCT070 
     FM301800 22005KT P6SM BKN050 
     FM302200 24004KT P6SM SCT060 
     FM310200 00000KT P6SM SCT250